createdAt,value
2023-03-10T00:02:21.637Z,4.50
2023-03-10T00:04:52.283Z,4.60
2023-03-10T00:07:19.396Z,4.70
2023-03-10T00:09:47.702Z,4.80
2023-03-10T00:12:14.557Z,4.80
2023-03-10T00:14:41.329Z,4.80
2023-03-10T00:17:08.167Z,4.90
2023-03-10T00:19:35.095Z,4.90
2023-03-10T00:22:04.003Z,4.90
2023-03-10T00:24:30.698Z,4.90
2023-03-10T00:26:57.526Z,4.90
2023-03-10T00:29:24.982Z,4.90
2023-03-10T00:31:51.802Z,4.90
2023-03-10T00:34:18.704Z,4.80
2023-03-10T00:36:45.476Z,4.80
2023-03-10T00:39:12.385Z,4.80
2023-03-10T00:41:42.440Z,4.80
2023-03-10T00:44:09.761Z,4.80
2023-03-10T00:46:39.120Z,4.80
2023-03-10T00:49:07.363Z,4.80
2023-03-10T00:51:34.674Z,4.90
2023-03-10T00:54:02.317Z,4.90
2023-03-10T00:56:29.385Z,4.80
2023-03-10T00:58:58.064Z,4.80
2023-03-10T01:01:29.028Z,4.80
2023-03-10T01:03:56.980Z,4.70
2023-03-10T01:06:23.792Z,4.70
2023-03-10T01:08:50.603Z,4.60
2023-03-10T01:11:18.772Z,4.50
2023-03-10T01:13:45.994Z,4.50
2023-03-10T01:16:12.676Z,4.40
2023-03-10T01:18:39.971Z,4.30
2023-03-10T01:21:07.316Z,4.30
2023-03-10T01:23:34.191Z,4.20
2023-03-10T01:26:00.954Z,4.20
2023-03-10T01:28:27.928Z,4.10
2023-03-10T01:30:57.230Z,4.10
2023-03-10T01:33:24.162Z,4.00
2023-03-10T01:35:50.896Z,4.00
2023-03-10T01:38:17.684Z,3.90
2023-03-10T01:40:47.956Z,3.90
2023-03-10T01:43:20.873Z,3.90
2023-03-10T01:45:47.490Z,3.90
2023-03-10T01:48:15.173Z,3.90
2023-03-10T01:50:46.628Z,3.90
2023-03-10T01:53:14.675Z,3.80
2023-03-10T01:55:43.579Z,3.80
2023-03-10T01:58:10.808Z,3.70
2023-03-10T02:00:37.540Z,3.70
2023-03-10T02:03:13.094Z,3.60
2023-03-10T02:05:51.583Z,3.60
2023-03-10T02:08:18.622Z,3.50
2023-03-10T02:10:46.399Z,3.50
2023-03-10T02:13:13.097Z,3.40
2023-03-10T02:15:40.688Z,3.40
2023-03-10T02:18:09.722Z,3.30
2023-03-10T02:20:41.369Z,3.30
2023-03-10T02:23:10.236Z,3.30
2023-03-10T02:25:53.783Z,3.30
2023-03-10T02:28:20.462Z,3.20
2023-03-10T02:30:48.267Z,3.30
2023-03-10T02:33:18.384Z,3.30
2023-03-10T02:35:45.302Z,3.20
2023-03-10T02:38:11.942Z,3.20
2023-03-10T02:40:40.806Z,3.30
2023-03-10T02:43:13.630Z,3.30
2023-03-10T02:45:41.562Z,3.20
2023-03-10T02:48:09.703Z,3.20
2023-03-10T02:50:37.848Z,3.20
2023-03-10T02:53:10.775Z,3.10
2023-03-10T02:55:37.381Z,3.10
2023-03-10T02:58:04.297Z,3.10
2023-03-10T03:00:31.275Z,3.10
2023-03-10T03:02:58.026Z,3.10
2023-03-10T03:05:24.636Z,3.10
2023-03-10T03:07:51.485Z,3.10
2023-03-10T03:10:18.808Z,3.10
2023-03-10T03:12:45.655Z,3.10
2023-03-10T03:15:12.289Z,3.10
2023-03-10T03:17:38.898Z,3.20
2023-03-10T03:20:14.744Z,3.20
2023-03-10T03:22:45.688Z,3.20
2023-03-10T03:25:14.166Z,3.10
2023-03-10T03:27:41.314Z,3.10
2023-03-10T03:30:09.560Z,3.10
2023-03-10T03:32:36.851Z,3.00
2023-03-10T03:35:04.333Z,3.00
2023-03-10T03:37:30.951Z,3.00
2023-03-10T03:39:57.620Z,2.90
2023-03-10T03:42:24.486Z,2.90
2023-03-10T03:44:51.150Z,2.90
2023-03-10T03:47:18.060Z,2.90
2023-03-10T03:49:44.736Z,2.90
2023-03-10T03:52:11.583Z,3.00
2023-03-10T03:54:42.515Z,3.00
2023-03-10T03:57:09.361Z,3.10
2023-03-10T03:59:36.006Z,3.10
2023-03-10T04:02:02.845Z,3.10
2023-03-10T04:04:29.688Z,3.20
2023-03-10T04:06:56.346Z,3.20
2023-03-10T04:09:23.157Z,3.20
2023-03-10T04:11:49.996Z,3.20
2023-03-10T04:14:16.688Z,3.30
2023-03-10T04:16:43.569Z,3.30
2023-03-10T04:19:10.202Z,3.30
2023-03-10T04:21:37.003Z,3.40
2023-03-10T04:24:04.102Z,3.40
2023-03-10T04:26:30.846Z,3.40
2023-03-10T04:28:58.194Z,3.50
2023-03-10T04:31:25.022Z,3.50
2023-03-10T04:33:52.523Z,3.60
2023-03-10T04:36:20.121Z,3.60
2023-03-10T04:38:46.901Z,3.60
2023-03-10T04:41:13.994Z,3.70
2023-03-10T04:43:42.553Z,3.70
2023-03-10T04:46:10.170Z,3.70
2023-03-10T04:48:39.065Z,3.80
2023-03-10T04:51:07.867Z,3.90
2023-03-10T04:53:35.231Z,3.90
2023-03-10T04:56:03.163Z,3.90
2023-03-10T04:58:29.994Z,3.90
2023-03-10T05:01:03.129Z,3.90
2023-03-10T05:03:30.278Z,4.00
2023-03-10T05:05:57.052Z,3.90
2023-03-10T05:08:24.110Z,4.00
2023-03-10T05:10:50.763Z,4.00
2023-03-10T05:13:17.491Z,4.00
2023-03-10T05:15:44.268Z,4.00
2023-03-10T05:18:11.910Z,4.00
2023-03-10T05:20:39.119Z,4.00
2023-03-10T05:23:07.086Z,4.00
2023-03-10T05:25:33.831Z,4.00
2023-03-10T05:28:00.484Z,4.00
2023-03-10T05:30:27.555Z,4.10
2023-03-10T05:32:54.296Z,4.10
2023-03-10T05:35:21.000Z,4.10
2023-03-10T05:37:47.685Z,4.20
2023-03-10T05:40:19.497Z,4.20
2023-03-10T05:42:47.299Z,4.20
2023-03-10T05:45:14.840Z,4.30
2023-03-10T05:47:42.238Z,4.30
2023-03-10T05:50:09.773Z,4.30
2023-03-10T05:52:37.459Z,4.40
2023-03-10T05:55:05.087Z,4.40
2023-03-10T05:57:32.252Z,4.40
2023-03-10T05:59:58.828Z,4.50
2023-03-10T06:02:26.257Z,4.50
2023-03-10T06:04:52.902Z,4.60
2023-03-10T06:07:19.505Z,4.60
2023-03-10T06:09:46.152Z,4.60
2023-03-10T06:12:12.758Z,4.70
2023-03-10T06:14:39.687Z,4.70
2023-03-10T06:17:06.302Z,4.70
2023-03-10T06:19:33.103Z,4.80
2023-03-10T06:21:59.768Z,4.80
2023-03-10T06:24:28.033Z,4.90
2023-03-10T06:26:54.868Z,4.90
2023-03-10T06:29:21.570Z,5.00
2023-03-10T06:31:48.236Z,5.10
2023-03-10T06:34:14.924Z,5.10
2023-03-10T06:36:41.956Z,5.20
2023-03-10T06:39:08.620Z,5.30
2023-03-10T06:41:35.894Z,5.30
2023-03-10T06:44:03.215Z,5.40
2023-03-10T06:46:30.214Z,5.40
2023-03-10T06:48:57.025Z,5.60
2023-03-10T06:51:23.641Z,5.60
2023-03-10T06:53:50.586Z,5.70
2023-03-10T06:56:21.421Z,5.80
2023-03-10T06:58:48.705Z,5.90
2023-03-10T07:01:33.876Z,5.90
2023-03-10T07:04:04.053Z,6.00
2023-03-10T07:06:30.826Z,6.10
2023-03-10T07:08:57.777Z,6.20
2023-03-10T07:11:24.987Z,6.30
2023-03-10T07:13:51.868Z,6.40
2023-03-10T07:16:18.877Z,6.60
2023-03-10T07:18:45.519Z,6.80
2023-03-10T07:21:14.647Z,6.80
2023-03-10T07:23:41.513Z,7.00
2023-03-10T07:26:09.075Z,7.10
2023-03-10T07:28:36.938Z,7.30
2023-03-10T07:31:07.764Z,7.30
2023-03-10T07:33:34.758Z,7.40
2023-03-10T07:36:06.049Z,7.50
2023-03-10T07:38:32.903Z,7.60
2023-03-10T07:41:01.902Z,7.70
2023-03-10T07:43:28.688Z,7.80
2023-03-10T07:45:55.690Z,7.90
2023-03-10T07:48:22.332Z,8.00
2023-03-10T07:50:55.567Z,8.10
2023-03-10T07:53:22.154Z,8.30
2023-03-10T07:55:49.004Z,8.30
2023-03-10T07:58:15.652Z,8.50
2023-03-10T08:00:42.488Z,8.60
2023-03-10T08:03:09.087Z,8.70
2023-03-10T08:05:41.908Z,8.80
2023-03-10T08:08:08.854Z,8.90
2023-03-10T08:10:36.812Z,9.10
2023-03-10T08:13:03.773Z,9.20
2023-03-10T08:15:30.489Z,9.30
2023-03-10T08:17:57.256Z,9.50
2023-03-10T08:20:24.146Z,9.60
2023-03-10T08:22:52.283Z,9.80
2023-03-10T08:25:18.923Z,9.90
2023-03-10T08:27:45.505Z,10.00
2023-03-10T08:30:12.551Z,10.10
2023-03-10T08:32:39.850Z,10.20
2023-03-10T08:35:07.143Z,10.30
2023-03-10T08:37:34.179Z,10.40
2023-03-10T08:40:03.059Z,10.60
2023-03-10T08:42:30.911Z,10.70
2023-03-10T08:44:57.559Z,10.80
2023-03-10T08:47:25.581Z,11.00
2023-03-10T08:49:55.785Z,11.10
2023-03-10T08:52:22.451Z,11.30
2023-03-10T08:54:49.125Z,11.40
2023-03-10T08:57:15.743Z,11.50
2023-03-10T08:59:42.358Z,11.50
2023-03-10T09:02:11.222Z,11.50
2023-03-10T09:04:37.862Z,11.60
2023-03-10T09:07:04.779Z,11.60
2023-03-10T09:09:31.417Z,11.70
2023-03-10T09:11:58.283Z,11.80
2023-03-10T09:14:25.802Z,11.90
2023-03-10T09:16:52.754Z,12.00
2023-03-10T09:19:19.707Z,12.10
2023-03-10T09:21:47.659Z,12.30
2023-03-10T09:24:15.345Z,12.50
2023-03-10T09:26:44.563Z,12.70
2023-03-10T09:29:12.134Z,12.90
2023-03-10T09:31:39.748Z,13.00
2023-03-10T09:34:08.101Z,13.30
2023-03-10T09:36:35.261Z,13.30
2023-03-10T09:39:02.500Z,13.50
2023-03-10T09:41:30.205Z,13.70
2023-03-10T09:44:16.584Z,13.80
2023-03-10T09:46:43.360Z,13.80
2023-03-10T09:49:23.114Z,13.80
2023-03-10T09:51:53.571Z,14.00
2023-03-10T09:54:27.931Z,14.10
2023-03-10T09:56:56.190Z,14.30
2023-03-10T09:59:34.322Z,14.30
2023-03-10T10:02:02.906Z,14.30
2023-03-10T10:04:40.160Z,14.50
2023-03-10T10:07:13.409Z,14.60
2023-03-10T10:09:43.611Z,14.80
2023-03-10T10:12:14.057Z,14.80
2023-03-10T10:14:48.170Z,15.00
2023-03-10T10:17:53.020Z,15.20
2023-03-10T10:20:31.337Z,15.30
2023-03-10T10:22:57.914Z,15.50
2023-03-10T10:25:25.338Z,15.70
2023-03-10T10:27:53.278Z,15.80
2023-03-10T10:30:27.480Z,15.90
2023-03-10T10:33:04.968Z,16.00
2023-03-10T10:35:36.577Z,16.10
2023-03-10T10:38:09.414Z,16.30
2023-03-10T10:40:47.539Z,16.30
2023-03-10T10:43:18.438Z,16.40
2023-03-10T10:45:51.331Z,16.50
2023-03-10T10:48:46.282Z,16.50
2023-03-10T10:51:19.361Z,16.60
2023-03-10T10:53:46.349Z,16.70
2023-03-10T10:56:14.225Z,16.90
2023-03-10T10:58:42.794Z,17.10
2023-03-10T11:01:12.494Z,17.10
2023-03-10T11:03:43.660Z,16.90
2023-03-10T11:06:14.223Z,16.80
2023-03-10T11:08:43.176Z,16.50
2023-03-10T11:11:15.830Z,16.20
2023-03-10T11:14:01.807Z,16.00
2023-03-10T11:16:31.819Z,15.70
2023-03-10T11:19:02.200Z,15.50
2023-03-10T11:21:30.221Z,15.30
2023-03-10T11:23:56.874Z,15.30
2023-03-10T11:26:33.438Z,15.30
2023-03-10T11:29:04.608Z,15.30
2023-03-10T11:31:40.267Z,15.20
2023-03-10T11:34:09.938Z,15.10
2023-03-10T11:36:53.465Z,14.90
2023-03-10T11:39:28.117Z,14.90
2023-03-10T11:42:00.040Z,14.70
2023-03-10T11:44:40.748Z,14.40
2023-03-10T11:47:07.406Z,14.20
2023-03-10T11:49:36.451Z,13.70
2023-03-10T11:52:07.665Z,13.40
2023-03-10T11:54:36.138Z,13.30
2023-03-10T11:57:20.274Z,13.00
2023-03-10T11:59:49.918Z,12.80
2023-03-10T12:02:40.123Z,12.70
2023-03-10T12:05:23.675Z,12.60
2023-03-10T12:07:53.565Z,12.70
2023-03-10T12:10:21.866Z,12.90
2023-03-10T12:12:49.714Z,13.10
2023-03-10T12:15:19.774Z,13.40
2023-03-10T12:17:46.952Z,13.50
2023-03-10T12:20:13.583Z,13.60
2023-03-10T12:22:46.287Z,13.80
2023-03-10T12:25:28.303Z,13.80
2023-03-10T12:28:14.030Z,13.80
2023-03-10T12:30:47.440Z,13.80
2023-03-10T12:33:34.317Z,14.00
2023-03-10T12:36:01.108Z,14.10
2023-03-10T12:38:27.897Z,14.30
2023-03-10T12:40:55.006Z,14.30
2023-03-10T12:43:40.547Z,14.30
2023-03-10T12:46:09.333Z,14.30
2023-03-10T12:48:41.275Z,14.40
2023-03-10T12:51:18.485Z,14.60
2023-03-10T12:53:47.332Z,14.60
2023-03-10T12:56:14.137Z,14.80
2023-03-10T12:58:45.976Z,14.80
2023-03-10T13:01:14.901Z,14.90
2023-03-10T13:03:44.404Z,15.00
2023-03-10T13:06:11.469Z,15.10
2023-03-10T13:08:42.126Z,15.10
2023-03-10T13:11:18.288Z,15.10
2023-03-10T13:13:47.559Z,15.20
2023-03-10T13:16:21.296Z,15.10
2023-03-10T13:18:52.380Z,15.20
2023-03-10T13:21:24.888Z,15.10
2023-03-10T13:23:51.971Z,15.10
2023-03-10T13:26:18.872Z,15.10
2023-03-10T13:28:56.237Z,15.20
2023-03-10T13:31:25.855Z,15.10
2023-03-10T13:33:54.240Z,15.00
2023-03-10T13:36:21.077Z,15.00
2023-03-10T13:38:48.113Z,14.90
2023-03-10T13:41:17.164Z,14.80
2023-03-10T13:43:45.059Z,14.90
2023-03-10T13:46:16.566Z,14.90
2023-03-10T13:48:43.790Z,14.90
2023-03-10T13:51:19.355Z,15.00
2023-03-10T13:53:47.667Z,15.00
2023-03-10T13:56:16.949Z,15.10
2023-03-10T13:58:44.619Z,15.30
2023-03-10T14:01:18.493Z,15.50
2023-03-10T14:03:49.044Z,15.50
2023-03-10T14:06:16.073Z,15.60
2023-03-10T14:08:42.995Z,15.50
2023-03-10T14:11:32.223Z,15.60
2023-03-10T14:13:59.311Z,15.50
2023-03-10T14:16:45.777Z,15.30
2023-03-10T14:19:12.443Z,15.20
2023-03-10T14:21:58.545Z,15.20
2023-03-10T14:24:28.147Z,15.10
2023-03-10T14:26:59.087Z,15.20
2023-03-10T14:29:26.197Z,15.10
2023-03-10T14:31:52.992Z,15.00
2023-03-10T14:34:19.667Z,14.90
2023-03-10T14:36:46.257Z,14.80
2023-03-10T14:39:13.033Z,14.80
2023-03-10T14:41:39.665Z,14.80
2023-03-10T14:44:07.031Z,14.70
2023-03-10T14:46:35.588Z,14.60
2023-03-10T14:49:03.483Z,14.40
2023-03-10T14:51:36.020Z,14.20
2023-03-10T14:54:03.611Z,14.10
2023-03-10T14:56:30.464Z,14.10
2023-03-10T14:59:01.957Z,14.00
2023-03-10T15:01:31.170Z,14.00
2023-03-10T15:03:57.928Z,13.90
2023-03-10T15:06:24.636Z,13.80
2023-03-10T15:08:51.315Z,13.70
2023-03-10T15:11:35.686Z,13.60
2023-03-10T15:14:05.039Z,13.60
2023-03-10T15:16:31.693Z,13.50
2023-03-10T15:18:58.369Z,13.50
2023-03-10T15:21:25.189Z,13.60
2023-03-10T15:23:52.013Z,13.50
2023-03-10T15:26:18.697Z,13.40
2023-03-10T15:28:45.618Z,13.40
2023-03-10T15:31:13.913Z,13.30
2023-03-10T15:33:40.623Z,13.20
2023-03-10T15:36:11.026Z,13.10
2023-03-10T15:38:38.832Z,13.00
2023-03-10T15:41:06.138Z,12.80
2023-03-10T15:43:32.952Z,12.70
2023-03-10T15:46:04.533Z,12.50
2023-03-10T15:48:31.493Z,12.50
2023-03-10T15:50:58.318Z,12.40
2023-03-10T15:53:27.850Z,12.30
2023-03-10T15:55:55.870Z,12.30
2023-03-10T15:58:24.868Z,12.20
2023-03-10T16:00:52.727Z,12.10
2023-03-10T16:03:19.377Z,11.90
2023-03-10T16:05:48.111Z,11.80
2023-03-10T16:08:15.109Z,11.70
2023-03-10T16:10:50.109Z,11.60
2023-03-10T16:13:16.667Z,11.60
2023-03-10T16:15:43.593Z,11.50
2023-03-10T16:18:10.171Z,11.40
2023-03-10T16:20:36.866Z,11.40
2023-03-10T16:23:04.038Z,11.30
2023-03-10T16:25:30.683Z,11.20
2023-03-10T16:27:57.345Z,11.10
2023-03-10T16:30:24.111Z,11.00
2023-03-10T16:32:52.573Z,10.80
2023-03-10T16:35:19.424Z,10.70
2023-03-10T16:37:46.144Z,10.60
2023-03-10T16:40:14.218Z,10.50
2023-03-10T16:42:45.352Z,10.40
2023-03-10T16:45:12.346Z,10.40
2023-03-10T16:47:39.193Z,10.30
2023-03-10T16:50:05.965Z,10.30
2023-03-10T16:52:38.598Z,10.20
2023-03-10T16:55:08.761Z,10.10
2023-03-10T16:57:36.035Z,10.00
2023-03-10T17:00:05.300Z,10.00
2023-03-10T17:02:32.118Z,9.90
2023-03-10T17:04:59.135Z,9.80
2023-03-10T17:07:26.081Z,9.80
2023-03-10T17:09:52.716Z,9.70
2023-03-10T17:12:19.493Z,9.70
2023-03-10T17:14:47.281Z,9.70
2023-03-10T17:17:14.281Z,9.60
2023-03-10T17:19:41.144Z,9.60
2023-03-10T17:22:07.942Z,9.50
2023-03-10T17:24:34.806Z,9.40
2023-03-10T17:27:01.464Z,9.30
2023-03-10T17:29:28.252Z,9.30
2023-03-10T17:31:55.064Z,9.30
2023-03-10T17:34:21.890Z,9.30
2023-03-10T17:36:51.605Z,9.30
2023-03-10T17:39:19.720Z,9.30
2023-03-10T17:41:46.466Z,9.30
2023-03-10T17:44:13.357Z,9.20
2023-03-10T17:46:43.099Z,9.20
2023-03-10T17:49:15.895Z,9.20
2023-03-10T17:51:44.663Z,9.10
2023-03-10T17:54:12.798Z,9.10
2023-03-10T17:56:39.715Z,9.10
2023-03-10T17:59:06.495Z,9.10
2023-03-10T18:01:33.970Z,9.00
2023-03-10T18:04:00.882Z,9.00
2023-03-10T18:06:29.851Z,8.90
2023-03-10T18:08:57.611Z,8.90
2023-03-10T18:11:27.828Z,8.90
2023-03-10T18:13:54.488Z,8.80
2023-03-10T18:16:23.913Z,8.80
2023-03-10T18:18:50.840Z,8.80
2023-03-10T18:21:18.915Z,8.70
2023-03-10T18:23:46.036Z,8.70
2023-03-10T18:26:14.402Z,8.70
2023-03-10T18:28:42.639Z,8.70
2023-03-10T18:31:10.580Z,8.70
2023-03-10T18:33:37.663Z,8.70
2023-03-10T18:36:06.821Z,8.70
2023-03-10T18:38:33.642Z,8.70
2023-03-10T18:41:01.140Z,8.70
2023-03-10T18:43:29.166Z,8.70
2023-03-10T18:45:56.338Z,8.70
2023-03-10T18:48:28.240Z,8.60
2023-03-10T18:50:56.198Z,8.60
2023-03-10T18:53:23.306Z,8.60
2023-03-10T18:55:50.260Z,8.50
2023-03-10T18:58:16.879Z,8.40
2023-03-10T19:00:43.767Z,8.40
2023-03-10T19:03:13.054Z,8.30
2023-03-10T19:05:40.087Z,8.30
2023-03-10T19:08:07.268Z,8.20
2023-03-10T19:10:33.874Z,8.10
2023-03-10T19:13:00.555Z,8.10
2023-03-10T19:15:28.452Z,8.00
2023-03-10T19:17:55.640Z,8.00
2023-03-10T19:20:23.547Z,8.00
2023-03-10T19:22:51.243Z,8.00
2023-03-10T19:25:18.661Z,8.00
2023-03-10T19:27:45.381Z,8.00
2023-03-10T19:30:14.053Z,8.00
2023-03-10T19:32:40.797Z,8.00
2023-03-10T19:35:08.834Z,8.00
2023-03-10T19:37:36.895Z,8.00
2023-03-10T19:40:06.036Z,8.00
2023-03-10T19:42:33.268Z,7.80
2023-03-10T19:44:59.909Z,7.70
2023-03-10T19:47:26.741Z,7.60
2023-03-10T19:49:54.691Z,7.40
2023-03-10T19:52:21.358Z,7.30
2023-03-10T19:54:48.528Z,7.20
2023-03-10T19:57:15.163Z,7.10
2023-03-10T19:59:41.983Z,7.00
2023-03-10T20:02:12.164Z,6.90
2023-03-10T20:04:39.433Z,6.90
2023-03-10T20:07:06.599Z,6.90
2023-03-10T20:09:33.363Z,6.80
2023-03-10T20:12:00.195Z,6.70
2023-03-10T20:14:26.986Z,6.70
2023-03-10T20:16:54.136Z,6.60
2023-03-10T20:19:22.970Z,6.60
2023-03-10T20:21:50.594Z,6.50
2023-03-10T20:24:18.038Z,6.50
2023-03-10T20:26:44.728Z,6.50
2023-03-10T20:29:11.859Z,6.50
2023-03-10T20:31:38.499Z,6.40
2023-03-10T20:34:07.847Z,6.40
2023-03-10T20:36:34.492Z,6.40
2023-03-10T20:39:01.417Z,6.40
2023-03-10T20:41:28.044Z,6.30
2023-03-10T20:43:55.319Z,6.40
2023-03-10T20:46:23.172Z,6.40
2023-03-10T20:48:50.769Z,6.40
2023-03-10T20:51:19.163Z,6.30
2023-03-10T20:53:46.131Z,6.30
2023-03-10T20:56:15.039Z,6.30
2023-03-10T20:58:41.965Z,6.30
2023-03-10T21:01:19.436Z,6.30
2023-03-10T21:03:46.485Z,6.30
2023-03-10T21:06:13.224Z,6.30
2023-03-10T21:08:39.982Z,6.30
2023-03-10T21:11:06.748Z,6.30
2023-03-10T21:13:34.908Z,6.40
2023-03-10T21:16:01.599Z,6.40
2023-03-10T21:18:28.308Z,6.40
2023-03-10T21:20:54.955Z,6.50
2023-03-10T21:23:21.688Z,6.50
2023-03-10T21:25:48.278Z,6.60
2023-03-10T21:28:15.231Z,6.60
2023-03-10T21:30:42.250Z,6.60
2023-03-10T21:33:08.982Z,6.70
2023-03-10T21:35:38.613Z,6.70
2023-03-10T21:38:05.388Z,6.70
2023-03-10T21:40:32.520Z,6.80
2023-03-10T21:43:02.079Z,6.80
2023-03-10T21:45:29.329Z,6.80
2023-03-10T21:47:56.047Z,6.80
2023-03-10T21:50:22.846Z,6.70
2023-03-10T21:52:51.821Z,6.60
2023-03-10T21:55:21.289Z,6.50
2023-03-10T21:57:47.959Z,6.50
2023-03-10T22:00:15.445Z,6.30
2023-03-10T22:02:42.055Z,6.30
2023-03-10T22:05:09.297Z,6.10
2023-03-10T22:07:35.985Z,6.10
2023-03-10T22:10:02.800Z,6.00
2023-03-10T22:12:29.439Z,5.90
2023-03-10T22:14:57.908Z,5.80
2023-03-10T22:17:25.592Z,5.60
2023-03-10T22:19:55.007Z,5.50
2023-03-10T22:22:22.399Z,5.40
2023-03-10T22:24:49.740Z,5.30
2023-03-10T22:27:16.863Z,5.20
2023-03-10T22:29:43.931Z,5.20
2023-03-10T22:32:10.798Z,5.00
2023-03-10T22:34:37.938Z,5.00
2023-03-10T22:37:05.418Z,4.90
2023-03-10T22:39:36.397Z,4.80
2023-03-10T22:42:04.817Z,4.80
2023-03-10T22:44:38.001Z,4.80
2023-03-10T22:47:05.462Z,4.80
2023-03-10T22:49:32.407Z,4.80
2023-03-10T22:51:59.121Z,4.90
2023-03-10T22:54:25.796Z,4.90
2023-03-10T22:56:52.538Z,4.90
2023-03-10T22:59:19.398Z,4.90
2023-03-10T23:01:46.174Z,5.00
2023-03-10T23:04:13.907Z,5.00
2023-03-10T23:06:42.067Z,5.00
2023-03-10T23:09:11.698Z,5.00
2023-03-10T23:11:38.351Z,5.00
2023-03-10T23:14:05.270Z,5.00
2023-03-10T23:16:36.276Z,4.90
2023-03-10T23:19:03.961Z,4.80
2023-03-10T23:21:30.886Z,4.70
2023-03-10T23:23:57.827Z,4.50
2023-03-10T23:26:24.741Z,4.40
2023-03-10T23:28:51.867Z,4.30
2023-03-10T23:31:20.068Z,4.20
2023-03-10T23:33:46.812Z,4.10
2023-03-10T23:36:13.804Z,4.10
2023-03-10T23:38:40.923Z,4.10
2023-03-10T23:41:09.437Z,4.10
2023-03-10T23:43:36.277Z,4.10
2023-03-10T23:46:06.815Z,4.10
2023-03-10T23:48:33.973Z,4.10
2023-03-10T23:51:01.473Z,4.10
2023-03-10T23:53:28.655Z,4.10
2023-03-10T23:56:00.185Z,4.00
2023-03-10T23:58:28.196Z,4.00
